sensor_id;sensor_type;location;lat;lon;timestamp;pressure;altitude;pressure_sealevel;temperature;humidity
15998;BME280;8103;51.340;12.326;2023-01-26T00:01:35;101064.34;;;3.02;84.22
15998;BME280;8103;51.340;12.326;2023-01-26T00:04:01;101065.97;;;3.03;83.34
15998;BME280;8103;51.340;12.326;2023-01-26T00:06:28;101052.91;;;3.01;84.01
15998;BME280;8103;51.340;12.326;2023-01-26T00:08:55;101055.38;;;3.03;84.21
15998;BME280;8103;51.340;12.326;2023-01-26T00:11:25;101049.38;;;3.09;84.02
15998;BME280;8103;51.340;12.326;2023-01-26T00:13:55;101040.41;;;3.10;84.19
15998;BME280;8103;51.340;12.326;2023-01-26T00:16:23;101031.00;;;3.07;83.73
15998;BME280;8103;51.340;12.326;2023-01-26T00:18:50;101031.00;;;3.07;83.40
15998;BME280;8103;51.340;12.326;2023-01-26T00:21:19;101033.56;;;3.01;83.27
15998;BME280;8103;51.340;12.326;2023-01-26T00:23:48;101032.03;;;2.92;83.91
15998;BME280;8103;51.340;12.326;2023-01-26T00:26:19;101025.16;;;2.97;83.95
15998;BME280;8103;51.340;12.326;2023-01-26T00:28:47;101029.44;;;2.98;83.99
15998;BME280;8103;51.340;12.326;2023-01-26T00:31:20;101023.25;;;2.91;83.96
15998;BME280;8103;51.340;12.326;2023-01-26T00:33:47;101018.97;;;2.90;83.60
15998;BME280;8103;51.340;12.326;2023-01-26T00:36:14;101020.13;;;2.88;84.35
15998;BME280;8103;51.340;12.326;2023-01-26T00:38:41;101018.59;;;2.93;84.04
15998;BME280;8103;51.340;12.326;2023-01-26T00:41:09;101026.38;;;2.95;83.93
15998;BME280;8103;51.340;12.326;2023-01-26T00:43:56;101025.41;;;2.88;84.41
15998;BME280;8103;51.340;12.326;2023-01-26T00:46:23;101022.16;;;2.86;84.67
15998;BME280;8103;51.340;12.326;2023-01-26T00:48:50;101021.50;;;2.84;84.16
15998;BME280;8103;51.340;12.326;2023-01-26T00:51:16;101018.50;;;2.87;84.34
15998;BME280;8103;51.340;12.326;2023-01-26T00:53:43;101018.97;;;2.90;84.99
15998;BME280;8103;51.340;12.326;2023-01-26T00:56:10;101022.06;;;2.94;84.32
15998;BME280;8103;51.340;12.326;2023-01-26T00:58:37;101019.41;;;2.94;84.15
15998;BME280;8103;51.340;12.326;2023-01-26T01:01:04;101014.28;;;2.92;84.45
15998;BME280;8103;51.340;12.326;2023-01-26T01:03:30;101018.97;;;2.90;83.79
15998;BME280;8103;51.340;12.326;2023-01-26T01:05:57;101021.06;;;2.95;84.18
15998;BME280;8103;51.340;12.326;2023-01-26T01:08:24;101018.78;;;2.92;83.94
15998;BME280;8103;51.340;12.326;2023-01-26T01:11:06;101013.09;;;2.80;83.71
15998;BME280;8103;51.340;12.326;2023-01-26T01:13:33;101026.91;;;2.76;83.91
15998;BME280;8103;51.340;12.326;2023-01-26T01:16:11;101022.31;;;2.70;84.28
15998;BME280;8103;51.340;12.326;2023-01-26T01:18:39;101013.56;;;2.69;84.77
15998;BME280;8103;51.340;12.326;2023-01-26T01:21:09;101012.09;;;2.67;84.98
15998;BME280;8103;51.340;12.326;2023-01-26T01:23:36;101011.16;;;2.60;84.73
15998;BME280;8103;51.340;12.326;2023-01-26T01:26:04;101002.59;;;2.58;84.85
15998;BME280;8103;51.340;12.326;2023-01-26T01:28:32;101010.78;;;2.63;84.55
15998;BME280;8103;51.340;12.326;2023-01-26T01:31:11;101008.97;;;2.63;84.75
15998;BME280;8103;51.340;12.326;2023-01-26T01:33:38;101000.56;;;2.60;84.75
15998;BME280;8103;51.340;12.326;2023-01-26T01:36:09;101001.75;;;2.57;84.77
15998;BME280;8103;51.340;12.326;2023-01-26T01:38:36;101000.47;;;2.53;85.13
15998;BME280;8103;51.340;12.326;2023-01-26T01:41:03;101003.19;;;2.45;85.21
15998;BME280;8103;51.340;12.326;2023-01-26T01:43:30;100997.44;;;2.42;86.29
15998;BME280;8103;51.340;12.326;2023-01-26T01:46:17;100994.63;;;2.43;86.06
15998;BME280;8103;51.340;12.326;2023-01-26T01:49:01;100983.22;;;2.43;86.34
15998;BME280;8103;51.340;12.326;2023-01-26T01:51:37;100986.88;;;2.42;85.87
15998;BME280;8103;51.340;12.326;2023-01-26T01:54:11;100983.38;;;2.41;86.61
15998;BME280;8103;51.340;12.326;2023-01-26T01:56:45;100984.41;;;2.40;85.91
15998;BME280;8103;51.340;12.326;2023-01-26T01:59:14;100971.72;;;2.36;86.88
15998;BME280;8103;51.340;12.326;2023-01-26T02:01:41;100971.25;;;2.32;86.22
15998;BME280;8103;51.340;12.326;2023-01-26T02:04:08;100970.09;;;2.35;86.63
15998;BME280;8103;51.340;12.326;2023-01-26T02:06:49;100970.53;;;2.38;86.74
15998;BME280;8103;51.340;12.326;2023-01-26T02:09:20;100962.75;;;2.37;87.01
15998;BME280;8103;51.340;12.326;2023-01-26T02:12:11;100971.63;;;2.44;87.04
15998;BME280;8103;51.340;12.326;2023-01-26T02:14:40;100952.75;;;2.47;86.37
15998;BME280;8103;51.340;12.326;2023-01-26T02:17:08;100950.63;;;2.42;86.79
15998;BME280;8103;51.340;12.326;2023-01-26T02:20:07;100947.81;;;2.44;86.21
15998;BME280;8103;51.340;12.326;2023-01-26T02:23:05;100941.00;;;2.49;86.30
15998;BME280;8103;51.340;12.326;2023-01-26T02:28:14;100929.56;;;2.49;85.63
15998;BME280;8103;51.340;12.326;2023-01-26T02:30:41;100932.16;;;2.57;85.61
15998;BME280;8103;51.340;12.326;2023-01-26T02:33:18;100936.78;;;2.55;85.34
15998;BME280;8103;51.340;12.326;2023-01-26T02:35:44;100928.84;;;2.55;85.73
15998;BME280;8103;51.340;12.326;2023-01-26T02:38:11;100935.78;;;2.56;85.93
15998;BME280;8103;51.340;12.326;2023-01-26T02:40:54;100926.56;;;2.52;85.64
15998;BME280;8103;51.340;12.326;2023-01-26T02:43:24;100917.38;;;2.48;85.58
15998;BME280;8103;51.340;12.326;2023-01-26T02:45:53;100914.72;;;2.48;86.18
15998;BME280;8103;51.340;12.326;2023-01-26T02:48:21;100914.97;;;2.53;85.71
15998;BME280;8103;51.340;12.326;2023-01-26T02:51:06;100912.44;;;2.45;86.55
15998;BME280;8103;51.340;12.326;2023-01-26T02:53:33;100901.03;;;2.44;87.03
15998;BME280;8103;51.340;12.326;2023-01-26T02:56:00;100895.84;;;2.51;86.43
15998;BME280;8103;51.340;12.326;2023-01-26T02:58:27;100900.41;;;2.57;86.44
15998;BME280;8103;51.340;12.326;2023-01-26T03:00:54;100902.28;;;2.63;86.38
15998;BME280;8103;51.340;12.326;2023-01-26T03:03:27;100902.47;;;2.61;86.53
15998;BME280;8103;51.340;12.326;2023-01-26T03:06:11;100910.59;;;2.60;86.66
15998;BME280;8103;51.340;12.326;2023-01-26T03:08:38;100899.09;;;2.53;86.38
15998;BME280;8103;51.340;12.326;2023-01-26T03:11:07;100902.47;;;2.61;86.66
15998;BME280;8103;51.340;12.326;2023-01-26T03:13:34;100902.03;;;2.58;86.29
15998;BME280;8103;51.340;12.326;2023-01-26T03:16:06;100907.56;;;2.63;86.75
15998;BME280;8103;51.340;12.326;2023-01-26T03:18:34;100897.34;;;2.60;86.22
15998;BME280;8103;51.340;12.326;2023-01-26T03:21:21;100900.41;;;2.57;86.46
15998;BME280;8103;51.340;12.326;2023-01-26T03:24:11;100895.38;;;2.47;86.45
15998;BME280;8103;51.340;12.326;2023-01-26T03:26:56;100900.91;;;2.38;87.39
15998;BME280;8103;51.340;12.326;2023-01-26T03:29:42;100890.72;;;2.35;87.42
15998;BME280;8103;51.340;12.326;2023-01-26T03:32:09;100892.72;;;2.33;87.89
15998;BME280;8103;51.340;12.326;2023-01-26T03:34:36;100890.06;;;2.33;88.39
15998;BME280;8103;51.340;12.326;2023-01-26T03:37:04;100882.13;;;2.33;88.02
15998;BME280;8103;51.340;12.326;2023-01-26T03:39:31;100882.13;;;2.33;87.92
15998;BME280;8103;51.340;12.326;2023-01-26T03:42:17;100880.16;;;2.35;88.22
15998;BME280;8103;51.340;12.326;2023-01-26T03:45:03;100874.84;;;2.35;88.36
15998;BME280;8103;51.340;12.326;2023-01-26T03:47:49;100868.91;;;2.33;88.21
15998;BME280;8103;51.340;12.326;2023-01-26T03:50:35;100868.25;;;2.31;87.83
15998;BME280;8103;51.340;12.326;2023-01-26T03:53:23;100865.34;;;2.26;89.20
15998;BME280;8103;51.340;12.326;2023-01-26T03:56:10;100874.09;;;2.11;89.19
15998;BME280;8103;51.340;12.326;2023-01-26T03:59:01;100875.63;;;2.06;89.06
15998;BME280;8103;51.340;12.326;2023-01-26T04:01:39;100872.81;;;2.07;89.14
15998;BME280;8103;51.340;12.326;2023-01-26T04:04:09;100878.75;;;2.09;89.27
15998;BME280;8103;51.340;12.326;2023-01-26T04:06:54;100879.19;;;2.13;90.15
15998;BME280;8103;51.340;12.326;2023-01-26T04:09:40;100882.19;;;2.10;89.37
15998;BME280;8103;51.340;12.326;2023-01-26T04:12:06;100888.47;;;1.94;90.19
15998;BME280;8103;51.340;12.326;2023-01-26T04:14:35;100889.53;;;1.85;90.52
15998;BME280;8103;51.340;12.326;2023-01-26T04:17:20;100893.06;;;1.78;91.11
15998;BME280;8103;51.340;12.326;2023-01-26T04:20:06;100898.84;;;1.81;91.17
15998;BME280;8103;51.340;12.326;2023-01-26T04:22:52;100892.19;;;1.85;90.81
15998;BME280;8103;51.340;12.326;2023-01-26T04:25:21;100885.88;;;1.86;90.89
15998;BME280;8103;51.340;12.326;2023-01-26T04:27:48;100885.88;;;1.86;91.00
15998;BME280;8103;51.340;12.326;2023-01-26T04:30:16;100881.91;;;1.90;91.09
15998;BME280;8103;51.340;12.326;2023-01-26T04:32:44;100870.63;;;1.96;90.78
15998;BME280;8103;51.340;12.326;2023-01-26T04:35:11;100874.91;;;1.97;90.84
15998;BME280;8103;51.340;12.326;2023-01-26T04:37:39;100867.59;;;1.99;91.40
15998;BME280;8103;51.340;12.326;2023-01-26T04:40:07;100878.47;;;2.04;91.29
15998;BME280;8103;51.340;12.326;2023-01-26T04:42:34;100874.63;;;2.07;90.89
15998;BME280;8103;51.340;12.326;2023-01-26T04:45:00;100865.59;;;2.01;90.72
15998;BME280;8103;51.340;12.326;2023-01-26T04:47:27;100868.97;;;1.95;91.52
15998;BME280;8103;51.340;12.326;2023-01-26T04:49:55;100873.81;;;1.92;91.09
15998;BME280;8103;51.340;12.326;2023-01-26T04:52:22;100879.88;;;1.92;90.91
15998;BME280;8103;51.340;12.326;2023-01-26T04:54:49;100868.16;;;1.95;91.26
15998;BME280;8103;51.340;12.326;2023-01-26T04:57:16;100873.53;;;2.01;91.40
15998;BME280;8103;51.340;12.326;2023-01-26T04:59:45;100867.53;;;2.07;91.02
15998;BME280;8103;51.340;12.326;2023-01-26T05:02:12;100872.94;;;2.14;91.23
15998;BME280;8103;51.340;12.326;2023-01-26T05:04:39;100860.88;;;2.11;91.33
15998;BME280;8103;51.340;12.326;2023-01-26T05:07:06;100867.53;;;2.07;90.95
15998;BME280;8103;51.340;12.326;2023-01-26T05:09:33;100871.97;;;2.07;91.34
15998;BME280;8103;51.340;12.326;2023-01-26T05:11:59;100875.16;;;2.02;91.18
15998;BME280;8103;51.340;12.326;2023-01-26T05:14:46;100862.59;;;2.04;91.18
15998;BME280;8103;51.340;12.326;2023-01-26T05:17:13;100872.81;;;2.07;91.31
15998;BME280;8103;51.340;12.326;2023-01-26T05:19:40;100871.19;;;2.06;90.94
15998;BME280;8103;51.340;12.326;2023-01-26T05:22:06;100867.88;;;2.04;91.09
15998;BME280;8103;51.340;12.326;2023-01-26T05:24:33;100879.28;;;2.05;91.76
15998;BME280;8103;51.340;12.326;2023-01-26T05:27:00;100876.09;;;2.09;91.80
15998;BME280;8103;51.340;12.326;2023-01-26T05:29:46;100878.66;;;2.17;91.06
15998;BME280;8103;51.340;12.326;2023-01-26T05:32:13;100878.28;;;2.20;90.50
15998;BME280;8103;51.340;12.326;2023-01-26T05:34:40;100880.22;;;2.27;90.62
15998;BME280;8103;51.340;12.326;2023-01-26T05:41:13;100883.22;;;2.23;90.66
15998;BME280;8103;51.340;12.326;2023-01-26T05:43:39;100879.66;;;2.16;91.02
15998;BME280;8103;51.340;12.326;2023-01-26T05:46:06;100877.75;;;2.10;90.62
15998;BME280;8103;51.340;12.326;2023-01-26T05:52:42;100888.47;;;1.94;90.89
15998;BME280;8103;51.340;12.326;2023-01-26T05:55:09;100883.53;;;1.91;91.05
15998;BME280;8103;51.340;12.326;2023-01-26T05:57:36;100895.75;;;1.92;91.53
15998;BME280;8103;51.340;12.326;2023-01-26T06:00:04;100886.53;;;1.88;91.61
15998;BME280;8103;51.340;12.326;2023-01-26T06:02:32;100882.72;;;1.91;90.96
15998;BME280;8103;51.340;12.326;2023-01-26T06:04:58;100872.13;;;1.91;91.05
15998;BME280;8103;51.340;12.326;2023-01-26T06:07:25;100883.91;;;1.88;91.16
15998;BME280;8103;51.340;12.326;2023-01-26T06:09:52;100886.91;;;1.85;90.92
15998;BME280;8103;51.340;12.326;2023-01-26T06:12:20;100884.25;;;1.85;91.42
15998;BME280;8103;51.340;12.326;2023-01-26T06:14:47;100883.25;;;1.86;91.72
15998;BME280;8103;51.340;12.326;2023-01-26T06:17:16;100883.91;;;1.88;91.32
15998;BME280;8103;51.340;12.326;2023-01-26T06:19:43;100885.53;;;1.89;91.17
15998;BME280;8103;51.340;12.326;2023-01-26T06:22:12;100884.44;;;1.84;91.32
15998;BME280;8103;51.340;12.326;2023-01-26T06:24:40;100885.25;;;1.84;91.25
15998;BME280;8103;51.340;12.326;2023-01-26T06:27:13;100892.47;;;1.90;91.47
15998;BME280;8103;51.340;12.326;2023-01-26T06:29:41;100887.56;;;1.87;90.80
15998;BME280;8103;51.340;12.326;2023-01-26T06:32:12;100881.25;;;1.88;91.28
15998;BME280;8103;51.340;12.326;2023-01-26T06:34:40;100883.91;;;1.88;91.06
15998;BME280;8103;51.340;12.326;2023-01-26T06:37:09;100885.53;;;1.89;90.26
15998;BME280;8103;51.340;12.326;2023-01-26T06:39:36;100894.13;;;1.91;90.64
15998;BME280;8103;51.340;12.326;2023-01-26T06:42:03;100886.00;;;1.93;90.79
15998;BME280;8103;51.340;12.326;2023-01-26T06:44:30;100892.13;;;1.93;90.70
15998;BME280;8103;51.340;12.326;2023-01-26T06:46:57;100890.47;;;1.92;90.97
15998;BME280;8103;51.340;12.326;2023-01-26T06:49:24;100894.47;;;1.88;90.64
15998;BME280;8103;51.340;12.326;2023-01-26T06:52:21;100898.56;;;1.91;91.05
15998;BME280;8103;51.340;12.326;2023-01-26T06:54:49;100897.78;;;1.90;90.80
15998;BME280;8103;51.340;12.326;2023-01-26T06:57:17;100894.13;;;1.91;90.90
15998;BME280;8103;51.340;12.326;2023-01-26T06:59:43;100903.13;;;1.82;90.57
15998;BME280;8103;51.340;12.326;2023-01-26T07:02:19;100891.88;;;1.80;90.51
15998;BME280;8103;51.340;12.326;2023-01-26T07:04:47;100895.53;;;1.79;91.05
15998;BME280;8103;51.340;12.326;2023-01-26T07:07:14;100902.47;;;1.80;90.96
15998;BME280;8103;51.340;12.326;2023-01-26T07:09:42;100902.47;;;1.80;90.49
15998;BME280;8103;51.340;12.326;2023-01-26T07:12:08;100905.88;;;1.89;90.87
15998;BME280;8103;51.340;12.326;2023-01-26T07:14:35;100902.63;;;2.01;90.65
15998;BME280;8103;51.340;12.326;2023-01-26T07:17:02;100906.81;;;2.10;90.03
15998;BME280;8103;51.340;12.326;2023-01-26T07:19:29;100905.47;;;2.14;90.29
15998;BME280;8103;51.340;12.326;2023-01-26T07:21:59;100898.91;;;2.10;89.78
15998;BME280;8103;51.340;12.326;2023-01-26T07:24:26;100901.91;;;2.07;89.84
15998;BME280;8103;51.340;12.326;2023-01-26T07:26:54;100891.13;;;2.09;89.63
15998;BME280;8103;51.340;12.326;2023-01-26T07:29:21;100891.13;;;2.09;89.15
15998;BME280;8103;51.340;12.326;2023-01-26T07:31:48;100883.69;;;2.12;88.98
15998;BME280;8103;51.340;12.326;2023-01-26T07:34:15;100881.94;;;2.19;89.00
15998;BME280;8103;51.340;12.326;2023-01-26T07:36:42;100880.28;;;2.18;88.15
15998;BME280;8103;51.340;12.326;2023-01-26T07:39:09;100875.75;;;2.12;87.27
15998;BME280;8103;51.340;12.326;2023-01-26T07:41:36;100875.38;;;2.15;87.83
15998;BME280;8103;51.340;12.326;2023-01-26T07:44:03;100868.72;;;2.19;86.99
15998;BME280;8103;51.340;12.326;2023-01-26T07:46:32;100881.59;;;2.22;86.71
15998;BME280;8103;51.340;12.326;2023-01-26T07:48:59;100873.72;;;2.29;86.99
15998;BME280;8103;51.340;12.326;2023-01-26T07:51:25;100881.78;;;2.36;86.00
15998;BME280;8103;51.340;12.326;2023-01-26T07:53:52;100876.84;;;2.33;85.91
15998;BME280;8103;51.340;12.326;2023-01-26T07:56:19;100873.13;;;2.42;86.50
15998;BME280;8103;51.340;12.326;2023-01-26T07:58:51;100868.63;;;2.42;85.81
15998;BME280;8103;51.340;12.326;2023-01-26T08:01:18;100869.63;;;2.41;85.45
15998;BME280;8103;51.340;12.326;2023-01-26T08:03:49;100872.47;;;2.40;84.94
15998;BME280;8103;51.340;12.326;2023-01-26T08:06:16;100874.75;;;2.43;85.07
15998;BME280;8103;51.340;12.326;2023-01-26T08:08:45;100876.13;;;2.39;84.91
15998;BME280;8103;51.340;12.326;2023-01-26T08:11:17;100877.38;;;2.43;84.41
15998;BME280;8103;51.340;12.326;2023-01-26T08:13:45;100875.03;;;2.33;85.15
15998;BME280;8103;51.340;12.326;2023-01-26T08:20:18;100881.59;;;2.22;85.24
15998;BME280;8103;51.340;12.326;2023-01-26T08:31:19;100882.66;;;2.13;86.77
15998;BME280;8103;51.340;12.326;2023-01-26T08:33:48;100881.75;;;2.06;87.01
15998;BME280;8103;51.340;12.326;2023-01-26T08:36:17;100883.50;;;2.14;86.30
15998;BME280;8103;51.340;12.326;2023-01-26T08:38:48;100879.00;;;2.14;86.74
15998;BME280;8103;51.340;12.326;2023-01-26T08:41:15;100879.13;;;2.21;86.94
15998;BME280;8103;51.340;12.326;2023-01-26T08:43:42;100894.44;;;2.26;86.81
15998;BME280;8103;51.340;12.326;2023-01-26T08:46:09;100890.16;;;2.24;86.76
15998;BME280;8103;51.340;12.326;2023-01-26T08:48:36;100892.53;;;2.19;86.43
15998;BME280;8103;51.340;12.326;2023-01-26T08:51:06;100892.53;;;2.19;87.32
15998;BME280;8103;51.340;12.326;2023-01-26T08:53:35;100889.59;;;2.14;87.06
15998;BME280;8103;51.340;12.326;2023-01-26T08:56:09;100898.06;;;2.10;87.30
15998;BME280;8103;51.340;12.326;2023-01-26T08:58:38;100895.97;;;2.05;86.68
15998;BME280;8103;51.340;12.326;2023-01-26T09:01:09;100911.47;;;2.08;86.97
15998;BME280;8103;51.340;12.326;2023-01-26T09:03:36;100911.63;;;2.07;86.67
15998;BME280;8103;51.340;12.326;2023-01-26T09:06:05;100905.47;;;2.14;86.63
15998;BME280;8103;51.340;12.326;2023-01-26T09:08:33;100906.72;;;2.18;86.59
15998;BME280;8103;51.340;12.326;2023-01-26T09:11:00;100904.28;;;2.17;86.84
15998;BME280;8103;51.340;12.326;2023-01-26T09:13:27;100912.03;;;2.18;86.78
15998;BME280;8103;51.340;12.326;2023-01-26T09:15:54;100908.41;;;2.19;85.96
15998;BME280;8103;51.340;12.326;2023-01-26T09:18:21;100904.28;;;2.17;86.82
15998;BME280;8103;51.340;12.326;2023-01-26T09:20:48;100907.38;;;2.20;86.92
15998;BME280;8103;51.340;12.326;2023-01-26T09:23:16;100904.47;;;2.15;85.69
15998;BME280;8103;51.340;12.326;2023-01-26T09:25:43;100919.69;;;2.13;86.06
15998;BME280;8103;51.340;12.326;2023-01-26T09:28:10;100913.13;;;2.09;85.90
15998;BME280;8103;51.340;12.326;2023-01-26T09:30:37;100905.81;;;2.11;85.98
15998;BME280;8103;51.340;12.326;2023-01-26T09:33:04;100920.06;;;2.10;86.14
15998;BME280;8103;51.340;12.326;2023-01-26T09:35:33;100911.22;;;2.18;85.80
15998;BME280;8103;51.340;12.326;2023-01-26T09:38:00;100910.84;;;2.21;85.23
15998;BME280;8103;51.340;12.326;2023-01-26T09:40:37;100916.59;;;2.24;85.66
15998;BME280;8103;51.340;12.326;2023-01-26T09:43:43;100918.13;;;2.19;85.32
15998;BME280;8103;51.340;12.326;2023-01-26T09:46:24;100928.63;;;2.12;85.44
15998;BME280;8103;51.340;12.326;2023-01-26T09:49:14;100923.69;;;2.09;86.62
15998;BME280;8103;51.340;12.326;2023-01-26T09:54:35;100926.25;;;2.17;86.21
15998;BME280;8103;51.340;12.326;2023-01-26T10:00:04;100900.47;;;2.19;85.78
15998;BME280;8103;51.340;12.326;2023-01-26T10:03:06;100899.00;;;2.17;86.46
15998;BME280;8103;51.340;12.326;2023-01-26T10:08:32;100898.53;;;2.13;87.18
15998;BME280;8103;51.340;12.326;2023-01-26T10:11:05;100882.66;;;2.13;86.84
15998;BME280;8103;51.340;12.326;2023-01-26T10:13:37;100882.66;;;2.13;86.56
15998;BME280;8103;51.340;12.326;2023-01-26T10:16:08;100883.69;;;2.12;86.23
15998;BME280;8103;51.340;12.326;2023-01-26T10:18:54;100883.69;;;2.12;85.80
15998;BME280;8103;51.340;12.326;2023-01-26T10:21:29;100890.50;;;2.21;85.46
15998;BME280;8103;51.340;12.326;2023-01-26T10:24:00;100894.44;;;2.26;85.50
15998;BME280;8103;51.340;12.326;2023-01-26T10:26:32;100883.94;;;2.32;85.02
15998;BME280;8103;51.340;12.326;2023-01-26T10:28:59;100887.97;;;2.28;85.37
15998;BME280;8103;51.340;12.326;2023-01-26T10:31:31;100889.41;;;2.31;84.83
15998;BME280;8103;51.340;12.326;2023-01-26T10:34:15;100886.16;;;2.29;85.03
15998;BME280;8103;51.340;12.326;2023-01-26T10:36:44;100885.16;;;2.30;84.64
15998;BME280;8103;51.340;12.326;2023-01-26T10:39:15;100887.25;;;2.34;84.48
15998;BME280;8103;51.340;12.326;2023-01-26T10:41:58;100884.31;;;2.44;83.59
15998;BME280;8103;51.340;12.326;2023-01-26T10:44:33;100873.13;;;2.42;84.21
15998;BME280;8103;51.340;12.326;2023-01-26T10:47:16;100866.91;;;2.35;83.67
15998;BME280;8103;51.340;12.326;2023-01-26T10:49:44;100872.09;;;2.43;83.84
15998;BME280;8103;51.340;12.326;2023-01-26T10:52:21;100866.25;;;2.47;83.07
15998;BME280;8103;51.340;12.326;2023-01-26T10:55:10;100861.34;;;2.44;82.44
15998;BME280;8103;51.340;12.326;2023-01-26T10:57:41;100867.19;;;2.40;82.38
15998;BME280;8103;51.340;12.326;2023-01-26T11:02:57;100862.53;;;2.42;82.15
15998;BME280;8103;51.340;12.326;2023-01-26T11:05:27;100852.31;;;2.39;81.91
15998;BME280;8103;51.340;12.326;2023-01-26T11:07:56;100852.19;;;2.47;81.83
15998;BME280;8103;51.340;12.326;2023-01-26T11:10:39;100851.94;;;2.56;81.58
15998;BME280;8103;51.340;12.326;2023-01-26T11:13:19;100845.44;;;2.59;81.76
15998;BME280;8103;51.340;12.326;2023-01-26T11:16:11;100839.59;;;2.63;81.85
15998;BME280;8103;51.340;12.326;2023-01-26T11:19:02;100842.34;;;2.70;82.22
15998;BME280;8103;51.340;12.326;2023-01-26T11:21:46;100836.94;;;2.78;81.34
15998;BME280;8103;51.340;12.326;2023-01-26T11:27:26;100830.63;;;2.79;81.45
15998;BME280;8103;51.340;12.326;2023-01-26T11:33:28;100821.16;;;2.70;81.73
15998;BME280;8103;51.340;12.326;2023-01-26T11:36:19;100826.38;;;2.63;82.79
15998;BME280;8103;51.340;12.326;2023-01-26T11:42:36;100819.91;;;2.37;82.91
15998;BME280;8103;51.340;12.326;2023-01-26T11:45:32;100821.56;;;2.38;83.34
15998;BME280;8103;51.340;12.326;2023-01-26T11:48:24;100820.94;;;2.36;83.25
15998;BME280;8103;51.340;12.326;2023-01-26T11:51:06;100817.38;;;2.29;83.49
15998;BME280;8103;51.340;12.326;2023-01-26T11:56:56;100811.91;;;2.30;84.48
15998;BME280;8103;51.340;12.326;2023-01-26T11:59:43;100809.72;;;2.34;84.70
15998;BME280;8103;51.340;12.326;2023-01-26T12:02:41;100818.34;;;2.42;84.68
15998;BME280;8103;51.340;12.326;2023-01-26T12:08:16;100814.63;;;2.37;84.76
15998;BME280;8103;51.340;12.326;2023-01-26T12:13:38;100801.69;;;2.42;84.68
15998;BME280;8103;51.340;12.326;2023-01-26T12:16:22;100799.03;;;2.42;84.87
15998;BME280;8103;51.340;12.326;2023-01-26T12:19:20;100789.06;;;2.44;84.77
15998;BME280;8103;51.340;12.326;2023-01-26T12:21:49;100788.19;;;2.37;85.27
15998;BME280;8103;51.340;12.326;2023-01-26T12:24:40;100781.53;;;2.26;85.46
15998;BME280;8103;51.340;12.326;2023-01-26T12:27:44;100781.34;;;2.13;85.50
15998;BME280;8103;51.340;12.326;2023-01-26T12:33:31;100773.34;;;2.21;85.77
15998;BME280;8103;51.340;12.326;2023-01-26T12:39:26;100764.13;;;2.32;86.05
15998;BME280;8103;51.340;12.326;2023-01-26T12:44:52;100761.19;;;2.27;85.86
15998;BME280;8103;51.340;12.326;2023-01-26T12:47:32;100769.03;;;2.35;85.93
15998;BME280;8103;51.340;12.326;2023-01-26T12:52:51;100761.38;;;2.25;86.11
15998;BME280;8103;51.340;12.326;2023-01-26T12:55:25;100761.94;;;2.20;86.63
15998;BME280;8103;51.340;12.326;2023-01-26T13:01:53;100761.94;;;2.20;86.07
15998;BME280;8103;51.340;12.326;2023-01-26T13:04:20;100760.56;;;2.10;86.39
15998;BME280;8103;51.340;12.326;2023-01-26T13:07:27;100754.69;;;1.93;86.72
15998;BME280;8103;51.340;12.326;2023-01-26T13:15:41;100766.75;;;1.73;87.83
15998;BME280;8103;51.340;12.326;2023-01-26T13:18:15;100769.41;;;1.73;87.51
15998;BME280;8103;51.340;12.326;2023-01-26T13:20:48;100771.06;;;1.74;88.38
15998;BME280;8103;51.340;12.326;2023-01-26T13:31:32;100772.41;;;1.70;88.57
15998;BME280;8103;51.340;12.326;2023-01-26T13:34:06;100774.63;;;1.67;89.05
15998;BME280;8103;51.340;12.326;2023-01-26T13:36:37;100779.56;;;1.47;88.72
15998;BME280;8103;51.340;12.326;2023-01-26T13:39:28;100779.28;;;1.42;89.56
15998;BME280;8103;51.340;12.326;2023-01-26T13:41:56;100783.22;;;1.46;89.62
15998;BME280;8103;51.340;12.326;2023-01-26T13:44:36;100780.78;;;1.59;89.11
15998;BME280;8103;51.340;12.326;2023-01-26T13:47:14;100787.63;;;1.68;89.41
15998;BME280;8103;51.340;12.326;2023-01-26T13:54:05;100774.25;;;1.70;89.00
15998;BME280;8103;51.340;12.326;2023-01-26T14:00:39;100785.25;;;1.73;88.78
15998;BME280;8103;51.340;12.326;2023-01-26T14:03:22;100779.91;;;1.81;88.86
15998;BME280;8103;51.340;12.326;2023-01-26T14:06:06;100784.53;;;1.79;88.92
15998;BME280;8103;51.340;12.326;2023-01-26T14:12:42;100773.22;;;1.56;88.17
15998;BME280;8103;51.340;12.326;2023-01-26T14:15:25;100783.59;;;1.43;87.86
15998;BME280;8103;51.340;12.326;2023-01-26T14:18:01;100779.09;;;1.44;88.34
15998;BME280;8103;51.340;12.326;2023-01-26T14:20:39;100777.59;;;1.49;88.39
15998;BME280;8103;51.340;12.326;2023-01-26T14:23:15;100779.34;;;1.57;88.40
15998;BME280;8103;51.340;12.326;2023-01-26T14:26:19;100778.59;;;1.63;87.91
15998;BME280;8103;51.340;12.326;2023-01-26T14:28:47;100781.78;;;1.58;87.90
15998;BME280;8103;51.340;12.326;2023-01-26T14:31:26;100786.25;;;1.58;87.60
15998;BME280;8103;51.340;12.326;2023-01-26T14:33:57;100780.13;;;1.57;87.13
15998;BME280;8103;51.340;12.326;2023-01-26T14:36:28;100779.13;;;1.58;87.08
15998;BME280;8103;51.340;12.326;2023-01-26T14:38:57;100778.16;;;1.59;86.55
15998;BME280;8103;51.340;12.326;2023-01-26T14:41:37;100775.78;;;1.64;86.92
15998;BME280;8103;51.340;12.326;2023-01-26T14:44:04;100775.41;;;1.67;86.74
15998;BME280;8103;51.340;12.326;2023-01-26T14:46:52;100780.69;;;1.67;86.17
15998;BME280;8103;51.340;12.326;2023-01-26T14:49:38;100778.22;;;1.66;85.67
15998;BME280;8103;51.340;12.326;2023-01-26T14:52:27;100784.72;;;1.63;86.03
15998;BME280;8103;51.340;12.326;2023-01-26T14:55:15;100778.88;;;1.68;86.15
15998;BME280;8103;51.340;12.326;2023-01-26T14:57:44;100784.00;;;1.69;86.07
15998;BME280;8103;51.340;12.326;2023-01-26T15:00:31;100782.34;;;1.68;85.85
15998;BME280;8103;51.340;12.326;2023-01-26T15:03:05;100784.00;;;1.69;85.17
15998;BME280;8103;51.340;12.326;2023-01-26T15:05:36;100781.28;;;1.77;85.37
15998;BME280;8103;51.340;12.326;2023-01-26T15:08:24;100773.63;;;1.82;85.13